Terminal Aerodrome Forecast
Issued by NWS Newport/Morehead City, NC

Home | Current Version | Previous Version | Graphics & Text | Print | Product List | Glossary On
Versions: 1 2 3 4 5 6 7 8 9 10 11 12 13 14 15 16 17 18 19 20
894
FTUS42 KMHX 230559
TAFEWN
TAF
KEWN 230559Z 2306/2406 08011G15KT 5SM +RA BR VCTS OVC005CB
     FM230800 15009KT P6SM VCSH OVC005
     FM230930 22007KT P6SM SCT015 BKN080
     FM231800 25005KT P6SM VCSH BKN035
     FM240000 29008KT P6SM BKN025=

USA.gov is the U.S. government's official web portal to all federal, state and local government web resources and services.